createdAt,value
2023-07-29T00:01:48.436Z,78.52
2023-07-29T00:04:16.463Z,78.81
2023-07-29T00:06:44.324Z,77.94
2023-07-29T00:09:10.938Z,78.72
2023-07-29T00:11:37.669Z,78.25
2023-07-29T00:14:04.322Z,78.56
2023-07-29T00:16:31.397Z,78.70
2023-07-29T00:18:58.160Z,78.60
2023-07-29T00:21:26.172Z,78.86
2023-07-29T00:23:53.118Z,78.70
2023-07-29T00:26:20.078Z,78.95
2023-07-29T00:28:46.827Z,79.03
2023-07-29T00:31:13.650Z,79.21
2023-07-29T00:33:40.386Z,78.61
2023-07-29T00:36:07.187Z,79.08
2023-07-29T00:38:35.215Z,78.38
2023-07-29T00:41:03.751Z,78.81
2023-07-29T00:43:30.613Z,78.61
2023-07-29T00:45:57.636Z,78.74
2023-07-29T00:48:25.039Z,78.17
2023-07-29T00:50:52.373Z,78.58
2023-07-29T00:53:19.048Z,79.13
2023-07-29T00:55:47.219Z,78.84
2023-07-29T00:58:13.821Z,78.34
2023-07-29T01:00:40.973Z,78.22
2023-07-29T01:03:08.360Z,78.41
2023-07-29T01:05:41.815Z,78.79
2023-07-29T01:08:18.929Z,78.71
2023-07-29T01:10:56.752Z,78.78
2023-07-29T01:13:30.809Z,79.21
2023-07-29T01:16:03.431Z,79.23
2023-07-29T01:18:32.959Z,78.43
2023-07-29T01:21:05.292Z,78.21
2023-07-29T01:23:35.030Z,78.36
2023-07-29T01:26:02.025Z,78.27
2023-07-29T01:28:29.380Z,78.25
2023-07-29T01:31:02.984Z,78.23
2023-07-29T01:33:35.340Z,78.09
2023-07-29T01:36:05.451Z,78.66
2023-07-29T01:38:36.420Z,78.06
2023-07-29T01:41:04.126Z,78.02
2023-07-29T01:43:31.226Z,77.65
2023-07-29T01:45:58.060Z,77.72
2023-07-29T01:48:24.869Z,77.79
2023-07-29T01:50:51.735Z,77.35
2023-07-29T01:53:18.380Z,77.62
2023-07-29T01:55:50.894Z,77.90
2023-07-29T01:58:17.535Z,77.61
2023-07-29T02:00:44.181Z,77.85
2023-07-29T02:03:10.835Z,77.41
2023-07-29T02:05:37.495Z,77.74
2023-07-29T02:08:04.630Z,77.34
2023-07-29T02:10:31.246Z,77.63
2023-07-29T02:12:59.352Z,77.95
2023-07-29T02:15:28.753Z,77.83
2023-07-29T02:17:55.426Z,78.07
2023-07-29T02:20:22.301Z,79.04
2023-07-29T02:22:49.170Z,78.96
2023-07-29T02:25:17.582Z,78.76
2023-07-29T02:27:44.476Z,78.37
2023-07-29T02:30:17.578Z,78.36
2023-07-29T02:32:44.342Z,78.23
2023-07-29T02:35:10.997Z,78.03
2023-07-29T02:37:37.758Z,78.72
2023-07-29T02:40:05.170Z,78.48
2023-07-29T02:42:31.800Z,78.71
2023-07-29T02:44:58.603Z,78.51
2023-07-29T02:47:26.629Z,78.08
2023-07-29T02:49:53.264Z,77.93
2023-07-29T02:52:19.945Z,77.50
2023-07-29T02:54:46.927Z,78.29
2023-07-29T02:57:14.926Z,78.10
2023-07-29T02:59:41.549Z,78.34
2023-07-29T03:02:08.227Z,77.93
2023-07-29T03:04:36.317Z,77.86
2023-07-29T03:07:03.267Z,77.53
2023-07-29T03:09:30.169Z,77.96
2023-07-29T03:11:56.783Z,77.91
2023-07-29T03:14:23.475Z,78.04
2023-07-29T03:16:52.315Z,77.90
2023-07-29T03:19:20.493Z,77.74
2023-07-29T03:21:48.519Z,77.21
2023-07-29T03:24:15.092Z,78.04
2023-07-29T03:26:44.036Z,77.93
2023-07-29T03:29:12.132Z,78.24
2023-07-29T03:31:45.324Z,78.27
2023-07-29T03:34:11.844Z,78.69
2023-07-29T03:36:38.704Z,78.25
2023-07-29T03:39:07.150Z,78.32
2023-07-29T03:41:33.745Z,78.03
2023-07-29T03:44:00.327Z,78.62
2023-07-29T03:46:27.251Z,78.58
2023-07-29T03:48:56.501Z,78.72
2023-07-29T03:51:23.471Z,79.19
2023-07-29T03:53:50.261Z,79.16
2023-07-29T03:56:18.531Z,79.27
2023-07-29T03:58:47.289Z,78.37
2023-07-29T04:01:13.906Z,79.04
2023-07-29T04:03:40.600Z,78.20
2023-07-29T04:06:07.246Z,78.11
2023-07-29T04:08:34.222Z,78.69
2023-07-29T04:11:00.861Z,79.12
2023-07-29T04:13:28.859Z,78.16
2023-07-29T04:15:55.654Z,78.78
2023-07-29T04:18:22.388Z,78.17
2023-07-29T04:20:49.036Z,77.18
2023-07-29T04:23:15.714Z,76.79
2023-07-29T04:25:42.337Z,76.81
2023-07-29T04:28:09.148Z,76.71
2023-07-29T04:30:37.278Z,76.67
2023-07-29T04:33:04.402Z,76.37
2023-07-29T04:35:31.045Z,76.24
2023-07-29T04:37:57.742Z,75.98
2023-07-29T04:40:24.376Z,76.30
2023-07-29T04:42:52.448Z,76.12
2023-07-29T04:45:19.306Z,75.46
2023-07-29T04:47:47.455Z,75.22
2023-07-29T04:50:14.113Z,75.38
2023-07-29T04:52:40.742Z,75.11
2023-07-29T04:55:08.263Z,75.27
2023-07-29T04:57:34.891Z,75.11
2023-07-29T05:00:01.477Z,74.80
2023-07-29T05:02:28.275Z,75.25
2023-07-29T05:04:56.393Z,74.67
2023-07-29T05:07:23.055Z,74.56
2023-07-29T05:09:49.769Z,73.43
2023-07-29T05:12:16.403Z,71.70
2023-07-29T05:14:43.111Z,70.47
2023-07-29T05:17:09.778Z,69.27
2023-07-29T05:19:36.401Z,68.72
2023-07-29T05:22:05.049Z,68.18
2023-07-29T05:24:33.846Z,67.37
2023-07-29T05:27:02.203Z,66.91
2023-07-29T05:29:28.826Z,65.87
2023-07-29T05:31:56.030Z,66.47
2023-07-29T05:34:22.588Z,66.48
2023-07-29T05:36:52.153Z,67.06
2023-07-29T05:39:20.194Z,66.81
2023-07-29T05:41:46.979Z,67.15
2023-07-29T05:44:14.051Z,67.86
2023-07-29T05:46:42.881Z,67.50
2023-07-29T05:49:09.542Z,68.69
2023-07-29T05:51:39.349Z,68.04
2023-07-29T05:54:06.007Z,68.04
2023-07-29T05:56:34.700Z,68.50
2023-07-29T05:59:01.626Z,68.49
2023-07-29T06:01:28.560Z,68.66
2023-07-29T06:03:55.234Z,68.78
2023-07-29T06:06:21.833Z,68.83
2023-07-29T06:08:48.521Z,69.17
2023-07-29T06:11:15.106Z,68.60
2023-07-29T06:13:43.107Z,67.76
2023-07-29T06:16:09.769Z,67.53
2023-07-29T06:18:36.423Z,66.57
2023-07-29T06:21:03.318Z,66.24
2023-07-29T06:23:30.147Z,65.21
2023-07-29T06:25:56.812Z,64.69
2023-07-29T06:28:23.483Z,63.90
2023-07-29T06:30:51.560Z,63.66
2023-07-29T06:33:18.653Z,63.13
2023-07-29T06:35:48.163Z,62.21
2023-07-29T06:38:15.008Z,60.99
2023-07-29T06:40:41.652Z,60.90
2023-07-29T06:43:08.302Z,60.38
2023-07-29T06:45:35.038Z,60.05
2023-07-29T06:48:03.364Z,60.32
2023-07-29T06:50:30.007Z,59.19
2023-07-29T06:52:58.666Z,58.83
2023-07-29T06:55:27.382Z,58.53
2023-07-29T06:57:54.125Z,57.41
2023-07-29T07:00:23.592Z,56.58
2023-07-29T07:02:50.483Z,55.56
2023-07-29T07:05:18.549Z,55.53
2023-07-29T07:07:45.501Z,55.19
2023-07-29T07:10:12.145Z,53.80
2023-07-29T07:12:38.840Z,53.71
2023-07-29T07:15:06.586Z,52.76
2023-07-29T07:17:33.409Z,51.89
2023-07-29T07:20:00.563Z,51.22
2023-07-29T07:22:28.656Z,50.09
2023-07-29T07:24:55.312Z,50.19
2023-07-29T07:27:22.009Z,49.37
2023-07-29T07:29:48.688Z,48.70
2023-07-29T07:32:15.375Z,47.34
2023-07-29T07:34:41.974Z,45.96
2023-07-29T07:37:08.655Z,45.08
2023-07-29T07:39:36.666Z,45.27
2023-07-29T07:42:06.337Z,44.05
2023-07-29T07:44:32.944Z,43.75
2023-07-29T07:46:59.927Z,43.86
2023-07-29T07:49:27.644Z,44.72
2023-07-29T07:51:54.267Z,44.02
2023-07-29T07:54:21.150Z,43.31
2023-07-29T07:56:49.135Z,42.48
2023-07-29T07:59:17.909Z,43.38
2023-07-29T08:01:45.116Z,43.79
2023-07-29T08:04:11.759Z,45.59
2023-07-29T08:06:38.633Z,46.77
2023-07-29T08:09:06.065Z,46.63
2023-07-29T08:11:32.672Z,46.94
2023-07-29T08:14:01.098Z,46.08
2023-07-29T08:16:27.872Z,46.79
2023-07-29T08:18:54.558Z,44.34
2023-07-29T08:21:21.377Z,43.52
2023-07-29T08:23:48.009Z,43.07
2023-07-29T08:26:20.914Z,42.91
2023-07-29T08:28:49.393Z,41.73
2023-07-29T08:31:17.443Z,39.82
2023-07-29T08:33:47.257Z,41.00
2023-07-29T08:36:13.909Z,40.36
2023-07-29T08:38:40.506Z,40.04
2023-07-29T08:41:14.257Z,39.57
2023-07-29T08:43:50.239Z,38.96
2023-07-29T08:46:19.978Z,38.55
2023-07-29T08:48:47.162Z,37.41
2023-07-29T08:51:13.851Z,37.58
2023-07-29T08:53:40.959Z,38.16
2023-07-29T08:56:08.372Z,38.54
2023-07-29T08:58:36.243Z,38.82
2023-07-29T09:01:02.901Z,40.07
2023-07-29T09:03:31.070Z,40.43
2023-07-29T09:05:59.036Z,40.64
2023-07-29T09:08:26.909Z,39.77
2023-07-29T09:10:54.438Z,39.21
2023-07-29T09:13:21.421Z,39.23
2023-07-29T09:15:58.386Z,40.03
2023-07-29T09:18:27.504Z,39.51
2023-07-29T09:20:59.986Z,38.93
2023-07-29T09:23:27.108Z,38.89
2023-07-29T09:26:01.906Z,39.10
2023-07-29T09:28:34.215Z,40.06
2023-07-29T09:31:00.872Z,40.70
2023-07-29T09:33:28.468Z,40.97
2023-07-29T09:35:56.513Z,42.76
2023-07-29T09:38:28.008Z,43.54
2023-07-29T09:40:56.521Z,44.37
2023-07-29T09:43:28.286Z,45.00
2023-07-29T09:45:54.901Z,44.88
2023-07-29T09:48:24.066Z,46.16
2023-07-29T09:50:50.893Z,46.54
2023-07-29T09:53:20.291Z,47.26
2023-07-29T09:55:48.029Z,47.62
2023-07-29T09:58:14.779Z,48.23
2023-07-29T10:00:41.590Z,48.71
2023-07-29T10:03:08.550Z,48.80
2023-07-29T10:05:36.694Z,48.31
2023-07-29T10:08:04.030Z,47.24
2023-07-29T10:10:32.002Z,45.79
2023-07-29T10:12:59.310Z,44.02
2023-07-29T10:15:26.903Z,42.82
2023-07-29T10:17:54.586Z,41.75
2023-07-29T10:20:21.621Z,40.62
2023-07-29T10:22:49.325Z,40.73
2023-07-29T10:25:18.669Z,40.16
2023-07-29T10:27:50.455Z,39.60
2023-07-29T10:30:17.437Z,38.19
2023-07-29T10:32:46.150Z,39.74
2023-07-29T10:35:13.347Z,39.83
2023-07-29T10:37:40.735Z,39.50
2023-07-29T10:40:10.413Z,40.12
2023-07-29T10:42:37.106Z,40.19
2023-07-29T10:45:29.132Z,40.41
2023-07-29T10:47:58.445Z,41.26
2023-07-29T10:50:25.306Z,40.68
2023-07-29T10:52:53.662Z,41.29
2023-07-29T10:55:32.836Z,42.93
2023-07-29T10:58:07.926Z,43.21
2023-07-29T11:00:36.677Z,43.15
2023-07-29T11:03:05.859Z,43.28
2023-07-29T11:05:47.701Z,43.32
2023-07-29T11:08:18.770Z,42.21
2023-07-29T11:10:45.854Z,42.10
2023-07-29T11:13:12.526Z,40.21
2023-07-29T11:15:40.614Z,40.66
2023-07-29T11:18:13.330Z,41.40
2023-07-29T11:20:39.966Z,41.20
2023-07-29T11:23:09.812Z,40.21
2023-07-29T11:25:36.494Z,39.16
2023-07-29T11:28:06.640Z,40.49
2023-07-29T11:30:33.953Z,41.04
2023-07-29T11:33:02.146Z,42.62
2023-07-29T11:35:28.858Z,42.83
2023-07-29T11:37:56.244Z,45.51
2023-07-29T11:40:25.150Z,44.91
2023-07-29T11:42:53.536Z,44.48
2023-07-29T11:45:24.064Z,42.84
2023-07-29T11:47:56.677Z,44.09
2023-07-29T11:50:24.994Z,44.86
2023-07-29T11:52:51.635Z,45.67
2023-07-29T11:55:18.217Z,46.04
2023-07-29T11:57:45.649Z,46.53
2023-07-29T12:00:13.597Z,46.41
2023-07-29T12:02:43.254Z,45.60
2023-07-29T12:05:12.938Z,44.22
2023-07-29T12:07:42.342Z,42.62
2023-07-29T12:10:11.113Z,42.47
2023-07-29T12:12:45.688Z,42.71
2023-07-29T12:15:12.371Z,44.57
2023-07-29T12:17:41.271Z,44.68
2023-07-29T12:20:10.485Z,43.42
2023-07-29T12:22:37.430Z,43.47
2023-07-29T12:25:05.980Z,42.91
2023-07-29T12:27:32.639Z,43.59
2023-07-29T12:30:02.048Z,44.12
2023-07-29T12:32:28.796Z,43.27
2023-07-29T12:34:55.521Z,43.93
2023-07-29T12:37:32.573Z,42.95
2023-07-29T12:39:59.148Z,41.79
2023-07-29T12:42:29.895Z,41.27
2023-07-29T12:44:56.507Z,40.42
2023-07-29T12:47:23.135Z,39.97
2023-07-29T12:49:50.059Z,39.73
2023-07-29T12:52:16.631Z,39.38
2023-07-29T12:54:43.267Z,38.65
2023-07-29T12:57:09.872Z,39.22
2023-07-29T12:59:37.884Z,40.09
2023-07-29T13:02:07.599Z,40.08
2023-07-29T13:04:34.660Z,41.45
2023-07-29T13:07:04.128Z,40.49
2023-07-29T13:09:30.671Z,41.72
2023-07-29T13:11:57.447Z,41.16
2023-07-29T13:14:26.794Z,41.15
2023-07-29T13:16:54.921Z,39.79
2023-07-29T13:19:21.507Z,39.59
2023-07-29T13:21:48.096Z,39.67
2023-07-29T13:24:17.678Z,39.41
2023-07-29T13:26:44.264Z,40.45
2023-07-29T13:29:10.843Z,42.31
2023-07-29T13:31:37.497Z,43.30
2023-07-29T13:34:05.573Z,43.88
2023-07-29T13:36:32.163Z,44.21
2023-07-29T13:38:58.834Z,43.27
2023-07-29T13:41:25.417Z,43.88
2023-07-29T13:43:51.997Z,44.99
2023-07-29T13:46:18.691Z,45.47
2023-07-29T13:48:45.306Z,46.42
2023-07-29T13:51:17.013Z,46.83
2023-07-29T13:53:44.100Z,48.20
2023-07-29T13:56:10.789Z,47.55
2023-07-29T13:58:37.578Z,47.69
2023-07-29T14:01:04.261Z,48.53
2023-07-29T14:03:31.149Z,47.84
2023-07-29T14:05:57.815Z,47.68
2023-07-29T14:08:26.230Z,48.34
2023-07-29T14:10:52.960Z,47.46
2023-07-29T14:13:24.796Z,47.64
2023-07-29T14:15:51.418Z,46.58
2023-07-29T14:18:21.078Z,44.71
2023-07-29T14:20:52.562Z,43.71
2023-07-29T14:23:19.330Z,43.81
2023-07-29T14:25:47.366Z,44.03
2023-07-29T14:28:15.142Z,45.26
2023-07-29T14:30:42.176Z,45.79
2023-07-29T14:33:08.960Z,45.41
2023-07-29T14:35:36.537Z,45.21
2023-07-29T14:38:03.200Z,44.99
2023-07-29T14:40:29.851Z,44.78
2023-07-29T14:42:58.110Z,44.79
2023-07-29T14:45:24.832Z,43.77
2023-07-29T14:47:51.561Z,44.95
2023-07-29T14:50:18.262Z,46.05
2023-07-29T14:52:44.872Z,46.03
2023-07-29T14:55:14.941Z,47.15
2023-07-29T14:57:46.467Z,48.05
2023-07-29T15:00:14.934Z,47.67
2023-07-29T15:02:41.973Z,47.04
2023-07-29T15:05:09.310Z,46.71
2023-07-29T15:07:36.008Z,47.17
2023-07-29T15:10:05.267Z,46.95
2023-07-29T15:12:31.869Z,45.86
2023-07-29T15:14:58.673Z,45.92
2023-07-29T15:17:26.808Z,44.95
2023-07-29T15:19:53.567Z,44.73
2023-07-29T15:22:20.258Z,42.96
2023-07-29T15:24:46.871Z,42.19
2023-07-29T15:27:13.597Z,41.75
2023-07-29T15:29:40.198Z,43.03
2023-07-29T15:32:10.057Z,42.32
2023-07-29T15:34:38.018Z,42.31
2023-07-29T15:37:04.849Z,42.53
2023-07-29T15:39:31.546Z,42.58
2023-07-29T15:41:58.813Z,43.35
2023-07-29T15:44:25.433Z,44.04
2023-07-29T15:46:52.148Z,44.84
2023-07-29T15:49:19.104Z,46.25
2023-07-29T15:51:47.070Z,46.28
2023-07-29T15:54:13.888Z,45.98
2023-07-29T15:56:43.472Z,46.83
2023-07-29T15:59:15.441Z,46.45
2023-07-29T16:01:42.427Z,47.57
2023-07-29T16:04:09.080Z,47.93
2023-07-29T16:06:35.859Z,47.90
2023-07-29T16:09:05.667Z,48.63
2023-07-29T16:11:32.602Z,48.02
2023-07-29T16:13:59.276Z,47.38
2023-07-29T16:16:26.172Z,47.77
2023-07-29T16:18:52.919Z,47.84
2023-07-29T16:21:19.534Z,48.17
2023-07-29T16:23:46.247Z,48.99
2023-07-29T16:26:15.879Z,48.46
2023-07-29T16:28:42.494Z,47.78
2023-07-29T16:31:12.994Z,47.68
2023-07-29T16:33:39.601Z,46.88
2023-07-29T16:36:06.232Z,46.10
2023-07-29T16:38:33.414Z,46.06
2023-07-29T16:41:13.967Z,46.11
2023-07-29T16:43:48.048Z,46.12
2023-07-29T16:46:14.677Z,46.13
2023-07-29T16:48:43.396Z,46.88
2023-07-29T16:51:12.985Z,47.10
2023-07-29T16:53:39.593Z,47.59
2023-07-29T16:56:06.381Z,48.13
2023-07-29T16:58:33.212Z,49.04
2023-07-29T17:01:01.228Z,48.84
2023-07-29T17:03:28.233Z,49.17
2023-07-29T17:05:55.094Z,49.21
2023-07-29T17:08:21.703Z,48.48
2023-07-29T17:10:48.467Z,48.48
2023-07-29T17:13:17.618Z,49.23
2023-07-29T17:15:47.045Z,49.34
2023-07-29T17:18:17.919Z,49.46
2023-07-29T17:20:52.340Z,49.10
2023-07-29T17:23:29.899Z,48.93
2023-07-29T17:25:57.756Z,49.67
2023-07-29T17:28:24.572Z,49.40
2023-07-29T17:30:54.218Z,49.76
2023-07-29T17:33:22.381Z,49.89
2023-07-29T17:35:48.954Z,49.47
2023-07-29T17:38:15.918Z,49.68
2023-07-29T17:40:42.650Z,49.90
2023-07-29T17:43:09.376Z,49.65
2023-07-29T17:45:36.001Z,49.80
2023-07-29T17:48:02.644Z,49.70
2023-07-29T17:50:30.745Z,49.96
2023-07-29T17:52:59.354Z,50.02
2023-07-29T17:55:25.956Z,50.10
2023-07-29T17:57:52.646Z,50.36
2023-07-29T18:00:21.542Z,49.94
2023-07-29T18:02:50.842Z,50.50
2023-07-29T18:05:17.581Z,50.86
2023-07-29T18:07:45.571Z,50.84
2023-07-29T18:10:16.537Z,50.73
2023-07-29T18:12:43.309Z,50.99
2023-07-29T18:15:11.313Z,51.92
2023-07-29T18:17:38.049Z,52.60
2023-07-29T18:20:06.563Z,53.15
2023-07-29T18:22:33.143Z,53.70
2023-07-29T18:25:01.830Z,54.02
2023-07-29T18:27:28.465Z,54.83
2023-07-29T18:29:55.277Z,55.23
2023-07-29T18:32:21.919Z,55.73
2023-07-29T18:34:48.767Z,56.86
2023-07-29T18:37:15.544Z,56.90
2023-07-29T18:39:42.294Z,57.12
2023-07-29T18:42:10.831Z,58.18
2023-07-29T18:44:37.665Z,60.79
2023-07-29T18:47:06.372Z,63.46
2023-07-29T18:49:42.250Z,64.62
2023-07-29T18:52:11.635Z,66.53
2023-07-29T18:54:38.573Z,66.68
2023-07-29T18:57:05.621Z,67.31
2023-07-29T18:59:33.880Z,68.08
2023-07-29T19:02:00.661Z,67.93
2023-07-29T19:04:27.520Z,69.18
2023-07-29T19:06:54.067Z,68.56
2023-07-29T19:09:20.667Z,69.07
2023-07-29T19:11:47.418Z,68.93
2023-07-29T19:14:14.384Z,69.46
2023-07-29T19:16:42.514Z,69.28
2023-07-29T19:19:11.578Z,69.59
2023-07-29T19:21:38.151Z,69.84
2023-07-29T19:24:05.277Z,70.00
2023-07-29T19:26:32.073Z,69.66
2023-07-29T19:28:58.710Z,69.93
2023-07-29T19:31:26.020Z,70.61
2023-07-29T19:33:59.614Z,71.32
2023-07-29T19:36:26.196Z,71.99
2023-07-29T19:38:52.768Z,71.88
2023-07-29T19:41:19.363Z,71.84
2023-07-29T19:43:46.324Z,72.53
2023-07-29T19:48:45.207Z,73.79
2023-07-29T19:51:13.138Z,73.88
2023-07-29T19:53:39.989Z,73.05
2023-07-29T19:56:06.599Z,72.96
2023-07-29T19:58:33.176Z,73.01
2023-07-29T20:00:59.778Z,73.21
2023-07-29T20:03:26.555Z,73.88
2023-07-29T20:05:53.209Z,74.24
2023-07-29T20:08:21.237Z,74.20
2023-07-29T20:10:51.168Z,74.43
2023-07-29T20:13:17.753Z,74.67
2023-07-29T20:15:44.533Z,75.67
2023-07-29T20:18:11.248Z,75.51
2023-07-29T20:20:37.873Z,75.68
2023-07-29T20:23:04.421Z,75.24
2023-07-29T20:25:32.797Z,75.15
2023-07-29T20:27:59.501Z,75.00
2023-07-29T20:30:26.106Z,75.08
2023-07-29T20:32:53.180Z,75.16
2023-07-29T20:35:21.551Z,74.58
2023-07-29T20:37:52.001Z,74.69
2023-07-29T20:40:18.656Z,74.81
2023-07-29T20:42:46.704Z,75.18
2023-07-29T20:45:13.497Z,75.82
2023-07-29T20:47:40.180Z,75.86
2023-07-29T20:50:10.917Z,75.90
2023-07-29T20:52:39.510Z,76.14
2023-07-29T20:55:07.082Z,76.68
2023-07-29T20:57:33.740Z,77.31
2023-07-29T21:00:01.792Z,77.86
2023-07-29T21:02:31.831Z,77.85
2023-07-29T21:05:00.881Z,78.40
2023-07-29T21:07:27.806Z,77.92
2023-07-29T21:09:54.589Z,77.81
2023-07-29T21:12:21.200Z,78.17
2023-07-29T21:14:47.816Z,77.78
2023-07-29T21:17:15.830Z,77.93
2023-07-29T21:19:44.048Z,78.45
2023-07-29T21:22:10.830Z,77.88
2023-07-29T21:24:38.655Z,77.61
2023-07-29T21:27:05.858Z,77.42
2023-07-29T21:29:32.458Z,76.93
2023-07-29T21:31:59.141Z,77.16
2023-07-29T21:34:27.367Z,76.47
2023-07-29T21:36:53.951Z,76.82
2023-07-29T21:39:20.705Z,77.09
2023-07-29T21:41:47.262Z,77.04
2023-07-29T21:44:13.851Z,76.96
2023-07-29T21:46:40.976Z,76.35
2023-07-29T21:49:07.597Z,76.73
2023-07-29T21:51:36.150Z,77.25
2023-07-29T21:54:02.918Z,76.95
2023-07-29T21:56:30.042Z,77.56
2023-07-29T21:58:56.582Z,78.36
2023-07-29T22:01:23.239Z,77.74
2023-07-29T22:03:49.812Z,77.79
2023-07-29T22:06:16.819Z,77.33
2023-07-29T22:08:44.749Z,77.49
2023-07-29T22:11:11.560Z,77.80
2023-07-29T22:13:38.341Z,78.41
2023-07-29T22:16:05.605Z,77.97
2023-07-29T22:18:32.717Z,78.35
2023-07-29T22:21:00.255Z,78.63
2023-07-29T22:23:27.444Z,79.55
2023-07-29T22:26:00.093Z,79.52
2023-07-29T22:28:27.483Z,79.21
2023-07-29T22:30:54.436Z,79.05
2023-07-29T22:33:21.883Z,78.51
2023-07-29T22:35:49.856Z,78.06
2023-07-29T22:38:16.880Z,77.58
2023-07-29T22:40:43.518Z,77.25
2023-07-29T22:43:11.488Z,77.35
2023-07-29T22:45:38.130Z,77.24
2023-07-29T22:48:05.671Z,76.71
2023-07-29T22:50:32.294Z,76.10
2023-07-29T22:52:58.836Z,76.03
2023-07-29T22:55:27.555Z,75.87
2023-07-29T22:57:54.268Z,75.10
2023-07-29T23:00:22.606Z,74.86
2023-07-29T23:02:49.200Z,74.84
2023-07-29T23:05:16.210Z,75.29
2023-07-29T23:07:42.983Z,75.16
2023-07-29T23:10:10.366Z,75.27
2023-07-29T23:12:37.305Z,75.05
2023-07-29T23:15:04.592Z,75.37
2023-07-29T23:17:32.547Z,75.55
2023-07-29T23:19:59.332Z,76.13
2023-07-29T23:22:26.124Z,76.22
2023-07-29T23:24:52.840Z,76.12
2023-07-29T23:27:21.253Z,76.37
2023-07-29T23:29:47.864Z,76.36
2023-07-29T23:32:14.979Z,76.01
2023-07-29T23:34:42.868Z,75.96
2023-07-29T23:37:09.485Z,76.51
2023-07-29T23:39:36.158Z,76.98
2023-07-29T23:42:02.785Z,77.27
2023-07-29T23:44:29.387Z,77.92
2023-07-29T23:46:58.562Z,78.31
2023-07-29T23:49:25.588Z,78.18
2023-07-29T23:51:53.516Z,77.98
2023-07-29T23:54:20.487Z,77.69
2023-07-29T23:56:47.075Z,77.18
2023-07-29T23:59:14.068Z,77.28
